• Join FlightAware (Why Join?)
  • Login
  • US Flag 
02:30AM EST


 

Airport Tracker/Info


-or-


 

Live Flight TrackerFlight Track Log ✈ FLG4081 ✈ 29-Apr-2013 ✈ KDTW - KAZO

Flight Track Log - Related Links

Times and Time Zones

All times are in EDT time to prevent confusion due to time zone crossing. See the FLG4081 flight status page for this flight to view local times or setup timezone preferences in your user account.

Time Position Orientation Groundspeed Altitude Reporting Facility
EDT Latitude Longitude Course Direction KTS MPH feet Rate Location/Type
09:48PM 42.2036 -83.3556 270° West 154 177 1,400  Level Cleveland Center
09:49PM 42.1864 -83.3800 226° Southwest 176 203 2,600 2,100 Climbing Cleveland Center
09:50PM 42.1475 -83.4397 229° Southwest 240 276 4,800 2,340 Climbing Cleveland Center
09:51PM 42.1203 -83.5225 246° West 283 326 7,400 2,820 Climbing Cleveland Center
09:52PM 42.2474 -84.0804 276° West  Level FlightAware Approximate
09:52PM 42.1428 -83.6189 288° West 273 314 10,600  Level Cleveland Center
09:53PM 42.2500 -84.2642 270° West  Level FlightAware Approximate
09:53PM 42.1578 -83.6839 287° West 302 348 11,700  Level Cleveland Center
09:54PM 42.2500 -84.4481 270° West  Level FlightAware Approximate
09:54PM 42.1836 -83.8031 286° West 325 374 12,000  Level Cleveland Center
09:55PM 42.2111 -83.9361 286° West 348 400 12,000  Level Cleveland Center
09:56PM 42.2367 -84.0639 285° West 359 413 12,100 -300 Climbing Cleveland Center
09:57PM 42.2597 -84.1914 284° West 359 413 11,500 -720 Descending Cleveland Center
09:59PM 42.2575 -84.4522 269° West 353 406 10,000 -540 Descending Cleveland Center
10:00PM 42.2553 -84.5756 269° West 348 400 10,000  Level Cleveland Center
10:01PM 42.2597 -84.6881 273° West 337 388 10,100  Climbing Cleveland Center
10:02PM 42.2575 -84.8086 269° West 332 382 10,000 -60 Descending Cleveland Center
10:03PM 42.2550 -84.9264 268° West 326 375 10,000 -300 Level Cleveland Center
10:04PM 42.2656 -85.0367 277° West 314 361 9,400 -1,320 Descending Cleveland Center
10:05PM 42.2764 -85.1300 279° West 285 328 7,400 -2,040 Descending Cleveland Center
10:06PM 42.2892 -85.2264 280° West 270 311 5,400 -1,380 Descending Cleveland Center
10:07PM 42.3094 -85.3561 282° West 254 292 4,000 -1,020 Descending Chicago Center
10:08PM 42.3381 -85.4350 296° West 205 236 2,900 -1,140 Descending Chicago Center